Pontardulais, United Kingdom
Current Conditions -  °F | °C
As of 11:50 AM on Tuesday 27 Jan 2015 (Local Time) from EGOP Reporting Station
Overcast Overcast  
Wind Chill: 42°   Ceiling: 2400
Heat Index: 46°   Visibility: 6mi
Dew Point: 41°   Wind: 8mph
Humidity: 81%   Direction: 270°W
Pressure: 30.39"   Gusts: NA
Location:  51.71°N, 4.04°W
Report Text: EGOP 271150Z 27007KT 9999 OVC024 08/05 Q1029 WHT
Loading
Personal Weather Stations






























Interactive Weather Map New forecast layout! Learn more

10-Day Weather Forecast

Advertisements
Track Severe Weather on mobile